createdAt,value
2023-05-04T00:00:07.762Z,100.00
2023-05-04T00:02:35.514Z,100.00
2023-05-04T00:05:06.213Z,100.00
2023-05-04T00:07:33.857Z,100.00
2023-05-04T00:10:01.547Z,100.00
2023-05-04T00:12:29.109Z,100.00
2023-05-04T00:14:56.725Z,100.00
2023-05-04T00:17:24.269Z,100.00
2023-05-04T00:19:51.718Z,100.00
2023-05-04T00:22:19.269Z,100.00
2023-05-04T00:24:46.734Z,100.00
2023-05-04T00:27:14.213Z,100.00
2023-05-04T00:29:41.757Z,100.00
2023-05-04T00:32:09.752Z,100.00
2023-05-04T00:34:37.523Z,100.00
2023-05-04T00:37:06.823Z,100.00
2023-05-04T00:39:35.381Z,100.00
2023-05-04T00:42:03.348Z,100.00
2023-05-04T00:44:30.934Z,100.00
2023-05-04T00:46:58.634Z,100.00
2023-05-04T00:49:26.838Z,100.00
2023-05-04T00:51:57.099Z,100.00
2023-05-04T00:54:26.002Z,100.00
2023-05-04T00:56:53.915Z,100.00
2023-05-04T00:59:21.855Z,100.00
2023-05-04T01:01:49.364Z,100.00
2023-05-04T01:04:17.112Z,100.00
2023-05-04T01:07:16.980Z,100.00
2023-05-04T01:10:00.949Z,100.00
2023-05-04T01:12:39.229Z,100.00
2023-05-04T01:15:09.771Z,100.00
2023-05-04T01:17:37.710Z,100.00
2023-05-04T01:20:06.443Z,100.00
2023-05-04T01:22:34.696Z,100.00
2023-05-04T01:25:02.470Z,100.00
2023-05-04T01:28:10.438Z,100.00
2023-05-04T01:30:44.118Z,100.00
2023-05-04T01:33:12.539Z,100.00
2023-05-04T01:35:40.433Z,100.00
2023-05-04T01:38:08.194Z,100.00
2023-05-04T01:40:35.691Z,100.00
2023-05-04T01:43:03.250Z,100.00
2023-05-04T01:45:30.792Z,100.00
2023-05-04T01:47:58.458Z,100.00
2023-05-04T01:50:26.330Z,100.00
2023-05-04T01:52:53.866Z,100.00
2023-05-04T01:55:21.396Z,100.00
2023-05-04T01:57:48.920Z,100.00
2023-05-04T02:00:16.877Z,100.00
2023-05-04T02:02:45.374Z,100.00
2023-05-04T02:05:17.597Z,100.00
2023-05-04T02:07:46.174Z,100.00
2023-05-04T02:10:13.729Z,100.00
2023-05-04T02:12:43.244Z,100.00
2023-05-04T02:15:11.215Z,100.00
2023-05-04T02:17:38.858Z,100.00
2023-05-04T02:20:07.421Z,100.00
2023-05-04T02:22:36.092Z,100.00
2023-05-04T02:25:03.660Z,100.00
2023-05-04T02:27:31.370Z,100.00
2023-05-04T02:29:59.458Z,100.00
2023-05-04T02:32:27.556Z,100.00
2023-05-04T02:34:55.108Z,100.00
2023-05-04T02:37:22.730Z,100.00
2023-05-04T02:39:50.176Z,100.00
2023-05-04T02:42:17.771Z,100.00
2023-05-04T02:44:45.267Z,100.00
2023-05-04T02:47:12.792Z,100.00
2023-05-04T02:49:40.359Z,100.00
2023-05-04T02:52:08.055Z,100.00
2023-05-04T02:54:35.891Z,100.00
2023-05-04T02:57:03.443Z,100.00
2023-05-04T02:59:31.000Z,100.00
2023-05-04T03:01:58.590Z,100.00
2023-05-04T03:04:26.207Z,100.00
2023-05-04T03:06:53.695Z,100.00
2023-05-04T03:09:21.117Z,100.00
2023-05-04T03:11:48.615Z,100.00
2023-05-04T03:14:16.488Z,100.00
2023-05-04T03:16:46.105Z,100.00
2023-05-04T03:19:13.571Z,100.00
2023-05-04T03:21:41.168Z,100.00
2023-05-04T03:24:08.694Z,100.00
2023-05-04T03:26:36.142Z,100.00
2023-05-04T03:29:03.663Z,100.00
2023-05-04T03:31:31.777Z,100.00
2023-05-04T03:33:59.870Z,100.00
2023-05-04T03:36:27.761Z,100.00
2023-05-04T03:38:56.113Z,100.00
2023-05-04T03:41:23.884Z,100.00
2023-05-04T03:43:51.380Z,100.00
2023-05-04T03:46:19.859Z,100.00
2023-05-04T03:48:47.384Z,100.00
2023-05-04T03:51:17.699Z,100.00
2023-05-04T03:53:46.238Z,100.00
2023-05-04T03:56:16.714Z,100.00
2023-05-04T03:58:44.342Z,100.00
2023-05-04T04:01:13.956Z,99.04
2023-05-04T04:03:41.459Z,92.83
2023-05-04T04:06:09.888Z,87.27
2023-05-04T04:08:38.386Z,80.56
2023-05-04T04:11:06.098Z,77.70
2023-05-04T04:13:33.593Z,73.61
2023-05-04T04:16:01.222Z,68.93
2023-05-04T04:18:28.725Z,65.18
2023-05-04T04:20:56.322Z,65.85
2023-05-04T04:23:24.593Z,64.04
2023-05-04T04:25:54.029Z,62.03
2023-05-04T04:28:21.660Z,60.89
2023-05-04T04:30:49.252Z,58.97
2023-05-04T04:33:17.142Z,55.35
2023-05-04T04:35:44.664Z,58.95
2023-05-04T04:38:12.090Z,52.62
2023-05-04T04:40:39.593Z,52.16
2023-05-04T04:43:07.119Z,50.95
2023-05-04T04:45:35.814Z,49.13
2023-05-04T04:48:04.077Z,48.94
2023-05-04T04:50:32.384Z,49.14
2023-05-04T04:53:00.174Z,47.70
2023-05-04T04:55:27.708Z,50.51
2023-05-04T04:57:55.781Z,44.77
2023-05-04T05:00:24.344Z,46.00
2023-05-04T05:02:51.869Z,46.42
2023-05-04T05:05:19.340Z,47.89
2023-05-04T05:07:46.971Z,52.58
2023-05-04T05:10:14.482Z,52.62
2023-05-04T05:12:42.050Z,49.92
2023-05-04T05:15:09.880Z,52.86
2023-05-04T05:17:37.973Z,48.79
2023-05-04T05:20:12.752Z,54.00
2023-05-04T05:22:40.954Z,50.22
2023-05-04T05:25:08.864Z,52.29
2023-05-04T05:27:37.002Z,53.55
2023-05-04T05:30:06.058Z,54.73
2023-05-04T05:32:34.149Z,56.65
2023-05-04T05:35:01.867Z,59.54
2023-05-04T05:37:29.285Z,55.79
2023-05-04T05:39:57.012Z,51.21
2023-05-04T05:42:24.588Z,52.61
2023-05-04T05:44:52.019Z,50.62
2023-05-04T05:47:19.730Z,53.17
2023-05-04T05:49:47.167Z,52.79
2023-05-04T05:52:14.923Z,52.41
2023-05-04T05:54:42.503Z,49.55
2023-05-04T05:57:10.038Z,49.03
2023-05-04T05:59:37.544Z,49.18
2023-05-04T06:02:06.063Z,48.69
2023-05-04T06:04:33.601Z,49.70
2023-05-04T06:07:01.123Z,49.94
2023-05-04T06:09:28.622Z,51.31
2023-05-04T06:11:56.168Z,51.20
2023-05-04T06:14:23.602Z,52.65
2023-05-04T06:16:51.314Z,52.57
2023-05-04T06:19:18.741Z,53.01
2023-05-04T06:21:49.572Z,53.98
2023-05-04T06:24:17.079Z,54.31
2023-05-04T06:26:44.514Z,53.02
2023-05-04T06:29:12.161Z,52.75
2023-05-04T06:31:39.698Z,52.96
2023-05-04T06:34:07.242Z,52.73
2023-05-04T06:36:34.698Z,54.60
2023-05-04T06:39:02.127Z,50.92
2023-05-04T06:41:29.730Z,48.20
2023-05-04T06:43:58.854Z,52.24
2023-05-04T06:46:27.271Z,64.43
2023-05-04T06:48:54.921Z,66.13
2023-05-04T06:51:22.488Z,68.36
2023-05-04T06:53:49.848Z,73.60
2023-05-04T06:56:17.809Z,73.41
2023-05-04T06:58:45.250Z,65.65
2023-05-04T07:01:12.787Z,61.56
2023-05-04T07:03:40.279Z,54.87
2023-05-04T07:06:07.964Z,54.77
2023-05-04T07:08:35.518Z,52.59
2023-05-04T07:11:03.084Z,49.44
2023-05-04T07:13:30.636Z,49.66
2023-05-04T07:15:58.136Z,49.84
2023-05-04T07:18:25.545Z,52.54
2023-05-04T07:20:54.312Z,45.84
2023-05-04T07:23:26.276Z,45.92
2023-05-04T07:25:53.845Z,45.36
2023-05-04T07:28:21.338Z,46.03
2023-05-04T07:30:48.729Z,46.91
2023-05-04T07:33:16.327Z,46.45
2023-05-04T07:35:43.881Z,47.23
2023-05-04T07:38:11.364Z,45.59
2023-05-04T07:40:38.886Z,44.52
2023-05-04T07:43:06.628Z,44.19
2023-05-04T07:45:34.085Z,43.83
2023-05-04T07:48:01.535Z,43.96
2023-05-04T07:50:29.430Z,44.33
2023-05-04T07:52:56.877Z,43.98
2023-05-04T07:55:25.319Z,43.15
2023-05-04T07:57:52.725Z,42.19
2023-05-04T08:00:20.885Z,43.07
2023-05-04T08:02:48.663Z,41.94
2023-05-04T08:05:16.406Z,43.30
2023-05-04T08:07:44.207Z,42.11
2023-05-04T08:10:11.632Z,44.89
2023-05-04T08:12:41.364Z,44.36
2023-05-04T08:15:10.675Z,43.60
2023-05-04T08:17:40.680Z,42.48
2023-05-04T08:24:14.771Z,42.29
2023-05-04T08:26:47.324Z,44.34
2023-05-04T08:29:19.986Z,43.60
2023-05-04T08:31:47.456Z,44.56
2023-05-04T08:34:14.981Z,42.93
2023-05-04T08:36:42.452Z,43.02
2023-05-04T08:39:12.111Z,42.73
2023-05-04T08:41:43.562Z,42.46
2023-05-04T08:44:11.748Z,41.21
2023-05-04T08:46:40.492Z,43.94
2023-05-04T08:49:08.435Z,45.59
2023-05-04T08:51:37.301Z,42.04
2023-05-04T08:54:10.546Z,43.53
2023-05-04T08:56:40.108Z,43.56
2023-05-04T08:59:09.828Z,40.88
2023-05-04T09:01:38.697Z,44.38
2023-05-04T09:04:06.366Z,43.40
2023-05-04T09:06:34.013Z,41.95
2023-05-04T09:09:01.557Z,42.98
2023-05-04T09:11:29.112Z,42.90
2023-05-04T09:13:56.884Z,44.34
2023-05-04T09:16:35.098Z,45.43
2023-05-04T09:19:04.642Z,43.83
2023-05-04T09:21:32.595Z,43.51
2023-05-04T09:24:00.332Z,40.72
2023-05-04T09:26:31.940Z,41.37
2023-05-04T09:29:13.760Z,40.23
2023-05-04T09:31:48.202Z,40.75
2023-05-04T09:34:15.986Z,41.69
2023-05-04T09:36:43.472Z,43.41
2023-05-04T09:39:15.793Z,42.47
2023-05-04T09:41:43.688Z,42.27
2023-05-04T09:44:29.488Z,42.55
2023-05-04T09:47:00.658Z,42.88
2023-05-04T09:49:38.040Z,42.48
2023-05-04T09:52:07.282Z,45.15
2023-05-04T09:54:36.422Z,43.34
2023-05-04T09:57:16.144Z,44.16
2023-05-04T09:59:43.740Z,43.14
2023-05-04T10:02:22.507Z,41.53
2023-05-04T10:04:51.946Z,42.12
2023-05-04T10:07:21.000Z,43.20
2023-05-04T10:09:49.117Z,40.18
2023-05-04T10:12:16.662Z,42.15
2023-05-04T10:14:46.973Z,42.67
2023-05-04T10:17:53.661Z,39.72
2023-05-04T10:20:33.158Z,39.11
2023-05-04T10:23:37.798Z,40.06
2023-05-04T10:26:24.228Z,40.44
2023-05-04T10:29:13.827Z,38.15
2023-05-04T10:31:42.995Z,40.88
2023-05-04T10:34:11.492Z,39.62
2023-05-04T10:36:40.839Z,40.87
2023-05-04T10:39:25.715Z,39.76
2023-05-04T10:42:08.610Z,39.83
2023-05-04T10:44:48.958Z,39.89
2023-05-04T10:47:28.192Z,39.60
2023-05-04T10:50:04.212Z,37.86
2023-05-04T10:52:52.201Z,38.38
2023-05-04T10:55:21.763Z,38.28
2023-05-04T10:57:54.263Z,38.11
2023-05-04T11:00:22.860Z,39.07
2023-05-04T11:02:50.494Z,39.13
2023-05-04T11:05:20.353Z,37.67
2023-05-04T11:07:50.961Z,38.46
2023-05-04T11:10:26.071Z,38.60
2023-05-04T11:13:02.704Z,37.98
2023-05-04T11:15:32.062Z,38.23
2023-05-04T11:17:59.640Z,35.42
2023-05-04T11:20:27.758Z,36.31
2023-05-04T11:22:55.187Z,37.36
2023-05-04T11:25:29.715Z,39.63
2023-05-04T11:28:01.587Z,37.91
2023-05-04T11:30:35.924Z,39.53
2023-05-04T11:33:11.878Z,37.98
2023-05-04T11:35:42.279Z,39.45
2023-05-04T11:38:10.529Z,37.49
2023-05-04T11:40:41.189Z,36.42
2023-05-04T11:43:11.358Z,38.36
2023-05-04T11:45:41.507Z,38.35
2023-05-04T11:48:09.686Z,37.44
2023-05-04T11:50:37.841Z,36.95
2023-05-04T11:53:09.397Z,38.36
2023-05-04T11:55:38.250Z,36.31
2023-05-04T11:58:07.739Z,36.34
2023-05-04T12:00:39.943Z,36.31
2023-05-04T12:03:09.808Z,36.70
2023-05-04T12:05:37.743Z,35.82
2023-05-04T12:08:07.385Z,36.24
2023-05-04T12:10:35.407Z,36.77
2023-05-04T12:13:02.980Z,36.90
2023-05-04T12:15:33.231Z,38.03
2023-05-04T12:18:02.683Z,37.13
2023-05-04T12:20:31.170Z,37.26
2023-05-04T12:23:05.518Z,36.06
2023-05-04T12:25:33.399Z,36.39
2023-05-04T12:28:01.254Z,37.13
2023-05-04T12:30:28.732Z,36.02
2023-05-04T12:32:56.508Z,36.50
2023-05-04T12:35:24.215Z,36.72
2023-05-04T12:37:51.611Z,36.12
2023-05-04T12:40:28.397Z,35.97
2023-05-04T12:42:56.409Z,34.11
2023-05-04T12:45:24.128Z,34.98
2023-05-04T12:47:51.698Z,36.38
2023-05-04T12:50:19.167Z,35.84
2023-05-04T12:52:46.655Z,36.52
2023-05-04T12:55:14.570Z,33.52
2023-05-04T12:57:43.494Z,34.75
2023-05-04T13:00:12.135Z,36.54
2023-05-04T13:02:39.570Z,35.61
2023-05-04T13:05:08.613Z,37.02
2023-05-04T13:07:36.454Z,35.46
2023-05-04T13:10:04.258Z,35.55
2023-05-04T13:12:31.941Z,34.09
2023-05-04T13:14:59.720Z,36.45
2023-05-04T13:17:27.854Z,33.76
2023-05-04T13:19:55.546Z,34.09
2023-05-04T13:22:23.080Z,34.61
2023-05-04T13:24:50.795Z,35.71
2023-05-04T13:27:18.210Z,36.35
2023-05-04T13:29:45.688Z,36.18
2023-05-04T13:32:13.208Z,34.90
2023-05-04T13:34:40.661Z,35.43
2023-05-04T13:37:08.107Z,34.41
2023-05-04T13:39:42.165Z,34.49
2023-05-04T13:42:09.713Z,34.51
2023-05-04T13:44:37.201Z,34.83
2023-05-04T13:47:04.777Z,35.53
2023-05-04T13:49:32.313Z,35.73
2023-05-04T13:51:59.816Z,36.40
2023-05-04T13:54:27.765Z,35.37
2023-05-04T13:56:55.183Z,35.04
2023-05-04T13:59:22.709Z,35.09
2023-05-04T14:01:50.816Z,35.20
2023-05-04T14:04:18.853Z,34.44
2023-05-04T14:06:50.397Z,32.82
2023-05-04T14:09:19.239Z,31.50
2023-05-04T14:11:47.369Z,33.50
2023-05-04T14:14:14.964Z,33.65
2023-05-04T14:16:42.647Z,34.35
2023-05-04T14:19:10.166Z,36.21
2023-05-04T14:21:37.596Z,34.83
2023-05-04T14:24:05.087Z,33.05
2023-05-04T14:26:33.030Z,31.56
2023-05-04T14:29:00.572Z,32.79
2023-05-04T14:31:28.172Z,32.86
2023-05-04T14:33:56.987Z,32.66
2023-05-04T14:36:24.795Z,32.00
2023-05-04T14:38:52.308Z,33.24
2023-05-04T14:41:19.885Z,34.45
2023-05-04T14:43:47.837Z,36.79
2023-05-04T14:46:15.338Z,32.77
2023-05-04T14:48:42.856Z,33.29
2023-05-04T14:51:12.680Z,34.88
2023-05-04T14:53:41.126Z,36.37
2023-05-04T14:56:08.572Z,35.74
2023-05-04T14:58:36.473Z,35.15
2023-05-04T15:01:04.103Z,32.52
2023-05-04T15:03:31.675Z,34.75
2023-05-04T15:05:59.136Z,33.66
2023-05-04T15:08:26.996Z,35.79
2023-05-04T15:10:58.145Z,35.41
2023-05-04T15:13:26.459Z,33.35
2023-05-04T15:15:54.599Z,35.19
2023-05-04T15:18:24.113Z,35.01
2023-05-04T15:20:51.790Z,36.03
2023-05-04T15:23:19.214Z,34.20
2023-05-04T15:25:46.911Z,35.72
2023-05-04T15:28:14.353Z,35.33
2023-05-04T15:30:42.195Z,34.59
2023-05-04T15:33:09.830Z,35.42
2023-05-04T15:35:38.701Z,35.89
2023-05-04T15:38:06.136Z,34.14
2023-05-04T15:40:33.607Z,34.68
2023-05-04T15:43:01.093Z,33.15
2023-05-04T15:45:28.608Z,33.61
2023-05-04T15:47:58.509Z,34.15
2023-05-04T15:50:26.862Z,34.46
2023-05-04T15:52:54.416Z,33.62
2023-05-04T15:55:25.410Z,33.72
2023-05-04T15:57:54.194Z,34.30
2023-05-04T16:00:22.398Z,34.26
2023-05-04T16:02:50.028Z,36.09
2023-05-04T16:05:17.546Z,35.04
2023-05-04T16:07:44.982Z,35.40
2023-05-04T16:10:12.608Z,35.41
2023-05-04T16:12:40.142Z,35.25
2023-05-04T16:15:07.846Z,35.34
2023-05-04T16:17:35.702Z,35.25
2023-05-04T16:20:05.136Z,35.46
2023-05-04T16:22:33.343Z,35.80
2023-05-04T16:25:02.233Z,35.91
2023-05-04T16:27:29.860Z,36.46
2023-05-04T16:29:57.308Z,35.81
2023-05-04T16:32:24.882Z,36.82
2023-05-04T16:34:52.385Z,37.79
2023-05-04T16:37:19.844Z,37.24
2023-05-04T16:39:47.323Z,36.47
2023-05-04T16:42:14.768Z,36.67
2023-05-04T16:44:42.225Z,36.73
2023-05-04T16:47:09.684Z,35.60
2023-05-04T16:49:37.234Z,37.33
2023-05-04T16:52:05.719Z,36.04
2023-05-04T16:54:34.318Z,36.08
2023-05-04T16:57:02.255Z,36.04
2023-05-04T16:59:29.742Z,35.42
2023-05-04T17:01:59.291Z,36.54
2023-05-04T17:04:29.103Z,36.06
2023-05-04T17:06:56.836Z,36.74
2023-05-04T17:09:24.291Z,37.35
2023-05-04T17:11:51.770Z,37.58
2023-05-04T17:14:19.412Z,37.74
2023-05-04T17:16:47.406Z,37.98
2023-05-04T17:19:14.785Z,38.68
2023-05-04T17:21:42.298Z,38.76
2023-05-04T17:24:09.749Z,38.70
2023-05-04T17:26:37.232Z,38.73
2023-05-04T17:29:04.822Z,38.19
2023-05-04T17:31:32.231Z,38.42
2023-05-04T17:33:59.774Z,39.05
2023-05-04T17:36:28.167Z,39.30
2023-05-04T17:38:55.805Z,40.02
2023-05-04T17:41:24.930Z,40.19
2023-05-04T17:43:54.189Z,40.62
2023-05-04T17:46:21.814Z,40.94
2023-05-04T17:48:50.168Z,40.81
2023-05-04T17:51:17.615Z,41.36
2023-05-04T17:53:45.939Z,41.82
2023-05-04T17:56:13.410Z,42.14
2023-05-04T17:58:40.922Z,42.71
2023-05-04T18:01:08.397Z,43.08
2023-05-04T18:03:36.070Z,43.23
2023-05-04T18:06:03.804Z,43.36
2023-05-04T18:08:31.284Z,42.77
2023-05-04T18:10:58.756Z,43.41
2023-05-04T18:13:26.855Z,43.34
2023-05-04T18:15:54.396Z,43.07
2023-05-04T18:18:21.914Z,43.92
2023-05-04T18:20:49.286Z,43.71
2023-05-04T18:23:16.790Z,43.71
2023-05-04T18:25:44.273Z,43.88
2023-05-04T18:28:11.775Z,44.74
2023-05-04T18:30:40.088Z,44.95
2023-05-04T18:33:07.591Z,45.24
2023-05-04T18:35:35.112Z,45.33
2023-05-04T18:38:02.530Z,45.63
2023-05-04T18:40:31.734Z,46.33
2023-05-04T18:42:59.218Z,46.28
2023-05-04T18:45:26.860Z,46.47
2023-05-04T18:47:54.309Z,47.90
2023-05-04T18:50:21.847Z,47.58
2023-05-04T18:52:49.279Z,47.89
2023-05-04T18:55:16.877Z,47.67
2023-05-04T18:57:44.510Z,48.06
2023-05-04T19:00:14.033Z,49.07
2023-05-04T19:02:41.631Z,49.33
2023-05-04T19:05:10.769Z,48.79
2023-05-04T19:07:39.217Z,48.62
2023-05-04T19:10:07.816Z,49.52
2023-05-04T19:12:35.589Z,49.16
2023-05-04T19:15:03.273Z,49.27
2023-05-04T19:17:32.779Z,49.51
2023-05-04T19:20:00.475Z,49.93
2023-05-04T19:22:28.013Z,50.39
2023-05-04T19:24:55.677Z,50.04
2023-05-04T19:27:23.140Z,50.42
2023-05-04T19:29:50.904Z,50.76
2023-05-04T19:32:24.255Z,51.38
2023-05-04T19:34:52.547Z,52.16
2023-05-04T19:37:20.425Z,52.61
2023-05-04T19:39:47.929Z,52.79
2023-05-04T19:42:16.100Z,54.09
2023-05-04T19:44:43.538Z,54.68
2023-05-04T19:47:11.103Z,54.90
2023-05-04T19:49:38.987Z,55.30
2023-05-04T19:52:07.139Z,55.96
2023-05-04T19:54:34.917Z,56.73
2023-05-04T19:57:02.447Z,56.98
2023-05-04T19:59:29.816Z,57.42
2023-05-04T20:01:59.062Z,57.96
2023-05-04T20:04:26.543Z,58.82
2023-05-04T20:06:54.162Z,59.32
2023-05-04T20:09:21.614Z,59.44
2023-05-04T20:11:49.129Z,59.76
2023-05-04T20:14:16.574Z,60.18
2023-05-04T20:16:44.247Z,60.47
2023-05-04T20:19:11.695Z,61.60
2023-05-04T20:21:39.217Z,62.66
2023-05-04T20:24:07.306Z,62.38
2023-05-04T20:26:34.893Z,62.80
2023-05-04T20:29:02.278Z,63.17
2023-05-04T20:31:30.471Z,63.46
2023-05-04T20:33:57.987Z,64.25
2023-05-04T20:36:25.395Z,65.16
2023-05-04T20:38:53.938Z,65.76
2023-05-04T20:41:25.568Z,67.89
2023-05-04T20:43:53.005Z,68.50
2023-05-04T20:46:20.485Z,70.48
2023-05-04T20:48:47.892Z,71.10
2023-05-04T20:51:15.728Z,72.55
2023-05-04T20:53:43.250Z,73.56
2023-05-04T20:56:10.841Z,76.88
2023-05-04T20:58:38.368Z,77.54
2023-05-04T21:01:06.378Z,78.17
2023-05-04T21:03:34.327Z,77.13
2023-05-04T21:06:02.409Z,76.54
2023-05-04T21:08:29.870Z,76.09
2023-05-04T21:10:57.336Z,75.39
2023-05-04T21:13:24.785Z,74.24
2023-05-04T21:15:52.371Z,73.62
2023-05-04T21:18:19.912Z,73.24
2023-05-04T21:20:47.531Z,72.01
2023-05-04T21:23:14.963Z,71.20
2023-05-04T21:25:42.511Z,69.74
2023-05-04T21:28:09.972Z,70.12
2023-05-04T21:30:41.270Z,69.68
2023-05-04T21:33:08.683Z,68.39
2023-05-04T21:35:36.207Z,68.14
2023-05-04T21:38:03.692Z,68.36
2023-05-04T21:40:31.758Z,69.10
2023-05-04T21:42:59.827Z,70.56
2023-05-04T21:45:27.391Z,71.32
2023-05-04T21:47:54.859Z,71.22
2023-05-04T21:50:22.387Z,71.56
2023-05-04T21:52:50.093Z,72.52
2023-05-04T21:55:17.759Z,72.53
2023-05-04T21:57:45.324Z,73.92
2023-05-04T22:00:17.720Z,75.51
2023-05-04T22:02:45.305Z,73.76
2023-05-04T22:05:12.758Z,74.89
2023-05-04T22:07:40.219Z,74.74
2023-05-04T22:10:08.439Z,74.13
2023-05-04T22:12:36.187Z,75.04
2023-05-04T22:15:03.731Z,75.85
2023-05-04T22:17:31.392Z,73.79
2023-05-04T22:19:58.834Z,72.51
2023-05-04T22:22:26.279Z,72.15
2023-05-04T22:24:53.683Z,72.92
2023-05-04T22:27:21.340Z,72.89
2023-05-04T22:29:48.719Z,72.05
2023-05-04T22:32:16.414Z,72.44
2023-05-04T22:34:43.882Z,72.74
2023-05-04T22:37:12.179Z,72.48
2023-05-04T22:39:39.549Z,72.20
2023-05-04T22:42:07.138Z,71.32
2023-05-04T22:44:34.744Z,70.18
2023-05-04T22:47:02.337Z,69.12
2023-05-04T22:49:29.990Z,69.72
2023-05-04T22:51:57.796Z,68.19
2023-05-04T22:54:25.859Z,68.94
2023-05-04T22:56:53.355Z,69.60
2023-05-04T22:59:20.901Z,69.08
2023-05-04T23:01:48.485Z,68.73
2023-05-04T23:04:16.590Z,67.92
2023-05-04T23:06:44.119Z,67.76
2023-05-04T23:09:11.999Z,67.16
2023-05-04T23:11:40.655Z,66.85
2023-05-04T23:14:08.213Z,67.26
2023-05-04T23:16:35.856Z,68.37
2023-05-04T23:19:03.653Z,67.45
2023-05-04T23:21:31.618Z,67.86
2023-05-04T23:23:59.059Z,68.46
2023-05-04T23:26:26.615Z,69.52
2023-05-04T23:28:54.056Z,68.26
2023-05-04T23:31:21.651Z,69.51
2023-05-04T23:33:49.077Z,69.87
2023-05-04T23:36:16.665Z,70.22
2023-05-04T23:38:44.154Z,71.52
2023-05-04T23:41:12.631Z,72.50
2023-05-04T23:43:40.081Z,73.49
2023-05-04T23:46:07.653Z,73.18
2023-05-04T23:48:35.063Z,73.49
2023-05-04T23:51:04.709Z,73.61
2023-05-04T23:53:33.829Z,72.39
2023-05-04T23:56:04.079Z,71.62
2023-05-04T23:58:33.409Z,71.27
